»·PEaware :: N409BH KPSC-KFHR

N409BH :: KPSC-KFHR

FLIGHT INFORMATION

Flight Status: Arrived
Operator: Privately registered:
United States
More flights under this callsign
Pilot: Rick S. (2164)
Aircraft: MOONEY M-20 201 202 205 220 ATS MSE
(M20P)
More flights by this aircraft type
Origin: KPSC Tri-Cities
United States
Destination: KFHR Friday Harbor
United States
More flights between these airports :: More routes between these airports
Route: +PSC7 PSC V204 YKM V4 JAWBN V495 ORCUS
File this flight plan on PilotEdge
Remarks:
Altitude:
(Current/Filed)
10,000ft
Speed:
(Current/Filed)
160kts
Departed: 23-Oct-20 01:33 PM
Arrived: 23-Oct-20 03:06 PM
Distance/Time
Traveled:
209nm/1:33
Distance/Time
To Go:
Arrived

Flight Plot

Page will automatically refresh every two minutes.

Flight plan parsing failed; only flown route is shown


Map Options




Map Legend


Flown Route
Filed Route
Departure Airport
Arrival Airport
Navaid (VOR, NDB)
Fix

Horizontal Profiles

Position Reports

Time Latitude Longitude Heading Altitude Ground
Speed
23-Oct-20 13:07 46.266390 -119.106286 251 411ft 0kts
23-Oct-20 13:08 46.266390 -119.106286 251 411ft 0kts
23-Oct-20 13:09 46.266390 -119.106286 251 411ft 0kts
23-Oct-20 13:10 46.266390 -119.106286 251 411ft 0kts
23-Oct-20 13:11 46.266390 -119.106286 251 411ft 0kts
23-Oct-20 13:12 46.266390 -119.106286 251 411ft 0kts
23-Oct-20 13:13 46.266390 -119.106286 251 411ft 0kts
23-Oct-20 13:14 46.266390 -119.106286 251 411ft 0kts
23-Oct-20 13:15 46.266390 -119.106286 251 411ft 0kts
23-Oct-20 13:16 46.266390 -119.106286 251 411ft 0kts
23-Oct-20 13:17 46.266390 -119.106286 251 411ft 0kts
23-Oct-20 13:18 46.266390 -119.106286 251 411ft 0kts
23-Oct-20 13:19 46.266390 -119.106286 251 411ft 0kts
23-Oct-20 13:20 46.266390 -119.106286 251 411ft 0kts
23-Oct-20 13:21 46.266329 -119.106469 241 411ft 2kts
23-Oct-20 13:22 46.266148 -119.107037 242 409ft 0kts
23-Oct-20 13:23 46.266148 -119.107037 242 409ft 0kts
23-Oct-20 13:24 46.266178 -119.108267 332 407ft 11kts
23-Oct-20 13:25 46.266222 -119.108301 330 407ft 0kts
23-Oct-20 13:26 46.267180 -119.109471 252 406ft 9kts
23-Oct-20 13:27 46.263560 -119.116204 311 404ft 0kts
23-Oct-20 13:28 46.263560 -119.116204 311 404ft 0kts
23-Oct-20 13:29 46.266897 -119.120925 315 397ft 31kts
23-Oct-20 13:30 46.269310 -119.123870 23 395ft 0kts
23-Oct-20 13:31 46.269310 -119.123870 23 395ft 0kts
23-Oct-20 13:32 46.263720 -119.114126 140 490ft 91kts
23-Oct-20 13:33 46.244266 -119.082192 136 1518ft 117kts
23-Oct-20 13:34 46.220973 -119.044741 135 2526ft 132kts
23-Oct-20 13:35 46.202855 -119.001432 65 3572ft 131kts
23-Oct-20 13:36 46.226273 -119.008260 299 4612ft 108kts
23-Oct-20 13:37 46.242370 -119.047542 298 5449ft 120kts
23-Oct-20 13:38 46.259329 -119.089825 298 6321ft 121kts
23-Oct-20 13:39 46.273417 -119.132831 289 7216ft 116kts
23-Oct-20 13:40 46.283775 -119.176685 288 8041ft 116kts
23-Oct-20 13:41 46.294018 -119.221189 288 8842ft 115kts
23-Oct-20 13:42 46.304058 -119.265159 288 9554ft 115kts
23-Oct-20 13:43 46.314140 -119.309510 288 10077ft 126kts
23-Oct-20 13:45 46.326350 -119.363449 288 10078ft 151kts
23-Oct-20 13:46 46.339908 -119.423399 288 10077ft 161kts
23-Oct-20 13:47 46.353930 -119.485704 288 10077ft 163kts
23-Oct-20 13:48 46.368042 -119.548535 288 10076ft 161kts
23-Oct-20 13:49 46.381862 -119.610179 288 10076ft 160kts
23-Oct-20 13:50 46.395660 -119.671935 288 10080ft 160kts
23-Oct-20 13:51 46.409597 -119.734512 288 9984ft 163kts
23-Oct-20 13:52 46.423495 -119.796979 288 9993ft 161kts
23-Oct-20 13:53 46.436787 -119.857172 288 10130ft 158kts
23-Oct-20 13:54 46.450782 -119.918103 288 10130ft 160kts
23-Oct-20 13:55 46.464840 -119.979409 288 10129ft 159kts
23-Oct-20 13:56 46.478812 -120.040488 289 10131ft 159kts
23-Oct-20 13:56 46.490364 -120.091167 289 10135ft 158kts
23-Oct-20 13:58 46.506511 -120.162126 289 10140ft 158kts
23-Oct-20 13:58 46.518008 -120.212817 289 10143ft 158kts
23-Oct-20 14:00 46.534056 -120.283769 289 10146ft 158kts
23-Oct-20 14:00 46.545454 -120.334325 289 10145ft 158kts
23-Oct-20 14:01 46.559176 -120.395336 289 10145ft 158kts
23-Oct-20 14:02 46.575809 -120.454143 302 10145ft 158kts
23-Oct-20 14:03 46.600258 -120.506936 303 10145ft 159kts
23-Oct-20 14:05 46.629800 -120.568976 304 10144ft 159kts
23-Oct-20 14:05 46.650832 -120.613082 304 10144ft 159kts
23-Oct-20 14:06 46.675991 -120.665926 303 10147ft 159kts
23-Oct-20 14:07 46.701253 -120.719076 303 10148ft 160kts
23-Oct-20 14:08 46.726590 -120.772486 303 10147ft 160kts
23-Oct-20 14:09 46.751869 -120.825850 303 10142ft 160kts
23-Oct-20 14:10 46.777151 -120.879317 303 10137ft 160kts
23-Oct-20 14:11 46.802385 -120.932794 303 10133ft 159kts
23-Oct-20 14:12 46.827556 -120.986243 303 10130ft 159kts
23-Oct-20 14:13 46.852618 -121.039577 304 10131ft 159kts
23-Oct-20 14:14 46.877675 -121.092994 304 10129ft 159kts
23-Oct-20 14:15 46.902618 -121.146274 304 10131ft 158kts
23-Oct-20 14:16 46.927450 -121.199419 304 10135ft 158kts
23-Oct-20 14:17 46.952213 -121.252511 304 10181ft 157kts
23-Oct-20 14:18 46.976790 -121.305308 304 10181ft 157kts
23-Oct-20 14:19 47.001412 -121.358309 304 10180ft 157kts
23-Oct-20 14:20 47.026074 -121.411496 304 10180ft 158kts
23-Oct-20 14:21 47.050784 -121.464887 304 10180ft 158kts
23-Oct-20 14:22 47.075431 -121.518252 304 10180ft 158kts
23-Oct-20 14:23 47.100035 -121.571633 304 10179ft 158kts
23-Oct-20 14:24 47.124778 -121.625414 304 10183ft 159kts
23-Oct-20 14:25 47.149632 -121.679552 303 10177ft 160kts
23-Oct-20 14:26 47.174677 -121.734198 303 10176ft 160kts
23-Oct-20 14:27 47.199701 -121.788931 303 10176ft 161kts
23-Oct-20 14:28 47.224696 -121.843702 303 10176ft 161kts
23-Oct-20 14:29 47.249728 -121.898654 303 10176ft 162kts
23-Oct-20 14:30 47.274873 -121.953966 303 10184ft 162kts
23-Oct-20 14:31 47.299890 -122.009105 303 10203ft 161kts
23-Oct-20 14:32 47.324784 -122.064090 303 10222ft 161kts
23-Oct-20 14:33 47.349664 -122.119129 303 10240ft 161kts
23-Oct-20 14:34 47.374604 -122.174399 303 10258ft 162kts
23-Oct-20 14:35 47.399595 -122.229924 303 10261ft 162kts
23-Oct-20 14:36 47.424580 -122.285538 303 10263ft 162kts
23-Oct-20 14:37 47.458605 -122.328957 325 10267ft 164kts
23-Oct-20 14:38 47.497366 -122.364246 326 10271ft 164kts
23-Oct-20 14:39 47.536430 -122.399000 326 10274ft 164kts
23-Oct-20 14:40 47.575590 -122.433784 326 10273ft 164kts
23-Oct-20 14:41 47.614733 -122.468573 325 10273ft 164kts
23-Oct-20 14:42 47.653834 -122.503441 325 10291ft 164kts
23-Oct-20 14:43 47.693525 -122.538267 326 9996ft 172kts
23-Oct-20 14:44 47.732575 -122.573179 328 9450ft 157kts
23-Oct-20 14:45 47.772052 -122.608679 325 8837ft 167kts
23-Oct-20 14:46 47.810872 -122.643513 324 8300ft 158kts
23-Oct-20 14:47 47.848764 -122.677729 326 7799ft 159kts
23-Oct-20 14:48 47.887650 -122.712684 326 7304ft 168kts
23-Oct-20 14:49 47.927725 -122.748916 326 6804ft 169kts
23-Oct-20 14:50 47.968087 -122.785427 326 6300ft 170kts
23-Oct-20 14:51 48.008498 -122.822082 326 5795ft 171kts
23-Oct-20 14:52 48.049634 -122.859441 326 5289ft 174kts
23-Oct-20 14:53 48.090605 -122.896727 326 4912ft 171kts
23-Oct-20 14:54 48.131457 -122.934047 326 4514ft 173kts
23-Oct-20 14:55 48.177232 -122.955683 343 4115ft 170kts
23-Oct-20 14:56 48.221948 -122.972896 343 3592ft 162kts
23-Oct-20 14:57 48.266364 -122.990085 343 2988ft 164kts
23-Oct-20 14:58 48.310835 -123.006901 347 2476ft 167kts
23-Oct-20 14:59 48.357059 -123.011617 355 2213ft 158kts
23-Oct-20 15:00 48.400705 -123.014985 355 2279ft 159kts
23-Oct-20 15:01 48.442506 -123.018180 356 1659ft 125kts
23-Oct-20 15:02 48.471132 -123.020411 357 1070ft 85kts
23-Oct-20 15:03 48.494359 -123.022123 357 618ft 83kts
23-Oct-20 15:04 48.517247 -123.024074 1 124ft 77kts
23-Oct-20 15:05 48.526515 -123.025685 231 116ft 11kts
23-Oct-20 15:06 48.526585 -123.026423 0 119ft 0kts
23-Oct-20 15:07 48.526585 -123.026423 0 119ft 0kts

Navigation Log

Ident Type
Flight plan parsing failed, navigation log unavailable